createdAt,value
2018-12-09T00:00:47.712Z,99103.11
2018-12-09T00:01:51.938Z,99096.66
2018-12-09T00:02:56.180Z,99105.43
2018-12-09T00:04:00.215Z,99107.74
2018-12-09T00:05:04.380Z,99098.78
2018-12-09T00:06:08.489Z,99107.92
2018-12-09T00:07:12.723Z,99096.81
2018-12-09T00:08:16.922Z,99100.11
2018-12-09T00:09:21.066Z,99103.41
2018-12-09T00:10:25.107Z,99105.58
2018-12-09T00:11:29.357Z,99099.42
2018-12-09T00:12:33.332Z,99109.22
2018-12-09T00:13:37.318Z,99112.41
2018-12-09T00:14:41.362Z,99117.87
2018-12-09T00:15:45.546Z,99131.64
2018-12-09T00:16:49.588Z,99125.00
2018-12-09T00:17:53.670Z,99130.50
2018-12-09T00:18:57.799Z,99123.86
2018-12-09T00:20:01.961Z,99133.16
2018-12-09T00:21:06.024Z,99134.64
2018-12-09T00:22:09.998Z,99124.70
2018-12-09T00:23:14.135Z,99121.02
2018-12-09T00:24:18.264Z,99131.83
2018-12-09T00:25:22.431Z,99131.83
2018-12-09T00:26:26.435Z,99131.98
2018-12-09T00:27:30.593Z,99123.38
2018-12-09T00:28:34.715Z,99127.36
2018-12-09T00:29:38.786Z,99142.30
2018-12-09T00:30:42.875Z,99123.72
2018-12-09T00:31:46.845Z,99136.50
2018-12-09T00:32:50.891Z,99134.64
2018-12-09T00:33:54.954Z,99139.65
2018-12-09T00:34:59.003Z,99135.66
2018-12-09T00:36:02.992Z,99129.02
2018-12-09T00:37:07.049Z,99133.50
2018-12-09T00:38:11.045Z,99128.19
2018-12-09T00:39:15.046Z,99125.88
2018-12-09T00:40:19.118Z,99135.97
2018-12-09T00:41:23.136Z,99129.52
2018-12-09T00:42:27.107Z,99134.83
2018-12-09T00:43:31.292Z,99129.02
2018-12-09T00:44:35.448Z,99121.89
2018-12-09T00:45:39.495Z,99121.06
2018-12-09T00:46:43.557Z,99117.41
2018-12-09T00:47:47.610Z,99126.67
2018-12-09T00:48:51.612Z,99115.91
2018-12-09T00:49:55.864Z,99118.06
2018-12-09T00:50:59.949Z,99111.42
2018-12-09T00:52:04.093Z,99116.89
2018-12-09T00:53:08.312Z,99121.06
2018-12-09T00:54:12.380Z,99120.22
2018-12-09T00:55:16.362Z,99114.27
2018-12-09T00:56:20.427Z,99116.73
2018-12-09T00:57:24.571Z,99104.14
2018-12-09T00:58:28.753Z,99116.77
2018-12-09T00:59:32.801Z,99130.05
2018-12-09T01:00:36.923Z,99128.03
2018-12-09T01:01:41.146Z,99133.88
2018-12-09T01:02:45.326Z,99116.42
2018-12-09T01:03:49.483Z,99110.28
2018-12-09T01:04:53.523Z,99117.94
2018-12-09T01:05:57.689Z,99127.88
2018-12-09T01:07:01.875Z,99133.03
2018-12-09T01:08:05.891Z,99124.91
2018-12-09T01:09:09.987Z,99138.68
2018-12-09T01:10:14.099Z,99141.52
2018-12-09T01:11:18.124Z,99134.88
2018-12-09T01:12:22.218Z,99134.54
2018-12-09T01:13:26.432Z,99136.70
2018-12-09T01:14:30.602Z,99153.13
2018-12-09T01:15:34.708Z,99148.64
2018-12-09T01:16:38.719Z,99139.02
2018-12-09T01:17:42.855Z,99136.52
2018-12-09T01:18:46.943Z,99147.47
2018-12-09T01:19:51.001Z,99145.31
2018-12-09T01:20:55.117Z,99146.64
2018-12-09T01:21:59.239Z,99144.48
2018-12-09T01:23:03.407Z,99146.64
2018-12-09T01:24:07.549Z,99132.03
2018-12-09T01:25:11.655Z,99136.20
2018-12-09T01:26:15.985Z,99127.07
2018-12-09T01:27:20.319Z,99126.58
2018-12-09T01:28:24.706Z,99131.05
2018-12-09T01:29:29.389Z,99120.74
2018-12-09T01:30:33.548Z,99116.77
2018-12-09T01:31:37.731Z,99118.92
2018-12-09T01:32:41.906Z,99132.04
2018-12-09T01:33:46.048Z,99142.66
2018-12-09T01:34:50.235Z,99146.33
2018-12-09T01:35:54.277Z,99143.67
2018-12-09T01:36:58.370Z,99152.62
2018-12-09T01:38:02.450Z,99165.89
2018-12-09T01:39:07.035Z,99165.89
2018-12-09T01:40:11.215Z,99178.33
2018-12-09T01:41:15.403Z,99175.19
2018-12-09T01:42:19.481Z,99173.52
2018-12-09T01:43:23.972Z,99169.04
2018-12-09T01:44:28.234Z,99180.16
2018-12-09T01:45:32.361Z,99175.67
2018-12-09T01:46:36.434Z,99176.17
2018-12-09T01:47:40.558Z,99178.18
2018-12-09T01:48:44.776Z,99168.70
2018-12-09T01:49:48.903Z,99185.13
2018-12-09T01:50:53.055Z,99186.45
2018-12-09T01:51:57.224Z,99187.29
2018-12-09T01:53:13.470Z,99186.80
2018-12-09T01:54:18.823Z,99190.12
2018-12-09T01:55:22.873Z,99185.16
2018-12-09T01:56:27.003Z,99187.47
2018-12-09T01:57:31.202Z,99183.33
2018-12-09T01:58:35.570Z,99181.16
2018-12-09T01:59:39.678Z,99200.38
2018-12-09T02:00:43.890Z,99189.45
2018-12-09T02:01:48.190Z,99205.88
2018-12-09T02:02:52.594Z,99191.77
2018-12-09T02:03:56.691Z,99200.07
2018-12-09T02:05:00.788Z,99201.70
2018-12-09T02:06:04.879Z,99208.34
2018-12-09T02:07:09.145Z,99208.34
2018-12-09T02:08:13.401Z,99212.33
2018-12-09T02:09:17.494Z,99212.33
2018-12-09T02:10:21.650Z,99198.39
2018-12-09T02:11:25.693Z,99216.82
2018-12-09T02:12:29.938Z,99219.92
2018-12-09T02:13:34.050Z,99218.27
2018-12-09T02:14:38.173Z,99219.73
2018-12-09T02:15:42.391Z,99228.18
2018-12-09T02:16:46.540Z,99222.35
2018-12-09T02:17:50.593Z,99227.33
2018-12-09T02:19:05.494Z,99217.19
2018-12-09T02:20:09.622Z,99226.30
2018-12-09T02:21:13.790Z,99223.63
2018-12-09T02:22:17.807Z,99229.75
2018-12-09T02:23:21.940Z,99239.70
2018-12-09T02:24:26.066Z,99236.88
2018-12-09T02:25:30.132Z,99227.08
2018-12-09T02:26:34.395Z,99242.65
2018-12-09T02:27:38.375Z,99232.70
2018-12-09T02:28:42.507Z,99238.64
2018-12-09T02:29:46.610Z,99242.45
2018-12-09T02:30:50.739Z,99248.08
2018-12-09T02:31:55.045Z,99250.06
2018-12-09T02:32:59.606Z,99262.14
2018-12-09T02:34:04.055Z,99251.19
2018-12-09T02:35:08.523Z,99246.23
2018-12-09T02:36:12.640Z,99266.12
2018-12-09T02:37:16.751Z,99261.48
2018-12-09T02:38:20.926Z,99249.52
2018-12-09T02:39:25.074Z,99254.14
2018-12-09T02:40:29.279Z,99246.13
2018-12-09T02:41:33.322Z,99236.34
2018-12-09T02:42:37.462Z,99244.40
2018-12-09T02:43:41.630Z,99255.97
2018-12-09T02:44:45.880Z,99249.98
2018-12-09T02:45:50.171Z,99256.70
2018-12-09T02:46:54.232Z,99246.91
2018-12-09T02:47:58.226Z,99237.52
2018-12-09T02:49:02.347Z,99226.13
2018-12-09T02:50:06.442Z,99221.41
2018-12-09T02:51:10.487Z,99233.45
2018-12-09T02:52:14.451Z,99230.27
2018-12-09T02:53:18.687Z,99237.20
2018-12-09T02:54:22.724Z,99252.19
2018-12-09T02:55:26.835Z,99252.36
2018-12-09T02:56:30.966Z,99232.52
2018-12-09T02:57:35.038Z,99233.53
2018-12-09T02:58:39.172Z,99224.94
2018-12-09T02:59:43.823Z,99229.92
2018-12-09T03:00:48.202Z,99234.86
2018-12-09T03:01:53.024Z,99229.58
2018-12-09T03:02:57.186Z,99230.77
2018-12-09T03:04:01.346Z,99237.23
2018-12-09T03:05:05.875Z,99226.83
2018-12-09T03:06:10.003Z,99225.83
2018-12-09T03:07:14.063Z,99223.05
2018-12-09T03:08:18.184Z,99222.38
2018-12-09T03:09:22.283Z,99222.73
2018-12-09T03:10:26.354Z,99231.02
2018-12-09T03:11:30.499Z,99230.36
2018-12-09T03:12:34.619Z,99234.69
2018-12-09T03:13:38.800Z,99230.72
2018-12-09T03:14:42.875Z,99227.09
2018-12-09T03:15:46.947Z,99232.22
2018-12-09T03:16:51.238Z,99238.34
2018-12-09T03:17:55.246Z,99237.69
2018-12-09T03:18:59.429Z,99235.05
2018-12-09T03:20:03.558Z,99238.87
2018-12-09T03:21:07.654Z,99232.12
2018-12-09T03:22:11.836Z,99242.56
2018-12-09T03:23:15.935Z,99237.63
2018-12-09T03:24:20.046Z,99246.37
2018-12-09T03:25:24.098Z,99243.09
2018-12-09T03:26:28.478Z,99267.59
2018-12-09T03:27:33.052Z,99250.38
2018-12-09T03:28:37.089Z,99248.08
2018-12-09T03:29:41.124Z,99259.16
2018-12-09T03:30:45.319Z,99248.56
2018-12-09T03:31:49.506Z,99250.38
2018-12-09T03:32:53.519Z,99246.27
2018-12-09T03:33:57.547Z,99248.42
2018-12-09T03:35:01.662Z,99236.52
2018-12-09T03:36:05.778Z,99241.46
2018-12-09T03:37:09.778Z,99245.57
2018-12-09T03:38:13.869Z,99233.48
2018-12-09T03:39:17.895Z,99231.63
2018-12-09T03:40:22.072Z,99234.06
2018-12-09T03:41:26.234Z,99243.64
2018-12-09T03:42:30.784Z,99239.63
2018-12-09T03:43:34.813Z,99238.61
2018-12-09T03:44:38.922Z,99243.23
2018-12-09T03:45:43.700Z,99257.09
2018-12-09T03:46:47.870Z,99245.36
2018-12-09T03:47:51.865Z,99246.81
2018-12-09T03:48:55.995Z,99250.47
2018-12-09T03:49:59.983Z,99250.47
2018-12-09T03:51:04.511Z,99261.37
2018-12-09T03:52:09.068Z,99269.31
2018-12-09T03:53:13.445Z,99247.82
2018-12-09T03:54:17.618Z,99246.33
2018-12-09T03:55:21.755Z,99249.46
2018-12-09T03:56:26.217Z,99253.44
2018-12-09T03:57:30.428Z,99247.52
2018-12-09T03:58:34.467Z,99253.13
2018-12-09T03:59:38.742Z,99256.13
2018-12-09T04:00:42.792Z,99250.69
2018-12-09T04:01:46.836Z,99250.52
2018-12-09T04:02:50.880Z,99246.55
2018-12-09T04:03:54.956Z,99254.01
2018-12-09T04:04:59.042Z,99249.55
2018-12-09T04:06:03.149Z,99255.81
2018-12-09T04:07:07.258Z,99258.81
2018-12-09T04:08:11.334Z,99263.09
2018-12-09T04:09:15.447Z,99254.84
2018-12-09T04:10:19.644Z,99269.23
2018-12-09T04:11:23.730Z,99263.45
2018-12-09T04:12:27.691Z,99273.41
2018-12-09T04:13:31.646Z,99275.41
2018-12-09T04:14:35.703Z,99269.45
2018-12-09T04:15:41.422Z,99265.20
2018-12-09T04:16:45.930Z,99276.63
2018-12-09T04:17:50.662Z,99278.80
2018-12-09T04:18:54.690Z,99276.80
2018-12-09T04:19:58.884Z,99270.29
2018-12-09T04:21:03.096Z,99271.61
2018-12-09T04:22:07.210Z,99279.06
2018-12-09T04:23:11.167Z,99267.64
2018-12-09T04:24:15.211Z,99282.69
2018-12-09T04:25:19.423Z,99268.30
2018-12-09T04:26:23.768Z,99284.67
2018-12-09T04:27:27.896Z,99290.94
2018-12-09T04:28:32.105Z,99280.83
2018-12-09T04:29:36.130Z,99273.90
2018-12-09T04:30:40.202Z,99282.33
2018-12-09T04:31:44.266Z,99284.00
2018-12-09T04:32:48.457Z,99283.48
2018-12-09T04:33:52.580Z,99287.80
2018-12-09T04:34:56.616Z,99284.18
2018-12-09T04:36:00.728Z,99278.89
2018-12-09T04:37:04.866Z,99275.41
2018-12-09T04:38:08.936Z,99278.53
2018-12-09T04:39:13.107Z,99275.70
2018-12-09T04:40:17.141Z,99285.33
2018-12-09T04:41:21.397Z,99285.33
2018-12-09T04:42:26.019Z,99292.42
2018-12-09T04:43:30.059Z,99287.27
2018-12-09T04:44:34.109Z,99294.55
2018-12-09T04:45:38.165Z,99297.51
2018-12-09T04:46:42.278Z,99297.67
2018-12-09T04:47:46.480Z,99295.52
2018-12-09T04:48:50.409Z,99305.13
2018-12-09T04:49:54.447Z,99317.70
2018-12-09T04:50:58.539Z,99304.47
2018-12-09T04:52:02.561Z,99303.98
2018-12-09T04:53:06.868Z,99297.86
2018-12-09T04:54:10.955Z,99298.69
2018-12-09T04:55:15.163Z,99301.83
2018-12-09T04:56:19.175Z,99310.95
2018-12-09T04:57:23.171Z,99309.28
2018-12-09T04:58:27.323Z,99317.22
2018-12-09T04:59:32.586Z,99316.08
2018-12-09T05:00:48.241Z,99309.14
2018-12-09T05:01:52.394Z,99307.82
2018-12-09T05:02:56.435Z,99312.59
2018-12-09T05:04:00.498Z,99313.44
2018-12-09T05:05:04.843Z,99313.30
2018-12-09T05:06:08.918Z,99318.11
2018-12-09T05:07:13.120Z,99314.45
2018-12-09T05:08:17.168Z,99312.16
2018-12-09T05:09:21.138Z,99309.02
2018-12-09T05:10:25.475Z,99311.53
2018-12-09T05:11:29.599Z,99313.86
2018-12-09T05:12:34.141Z,99300.94
2018-12-09T05:13:38.270Z,99309.23
2018-12-09T05:14:42.290Z,99315.85
2018-12-09T05:15:46.390Z,99313.20
2018-12-09T05:16:50.554Z,99310.56
2018-12-09T05:17:54.759Z,99314.53
2018-12-09T05:18:58.929Z,99316.20
2018-12-09T05:20:03.070Z,99308.93
2018-12-09T05:21:07.145Z,99329.97
2018-12-09T05:22:11.198Z,99321.02
2018-12-09T05:23:15.154Z,99320.40
2018-12-09T05:24:19.336Z,99328.66
2018-12-09T05:25:23.291Z,99321.91
2018-12-09T05:26:27.306Z,99323.58
2018-12-09T05:27:31.346Z,99326.22
2018-12-09T05:28:35.308Z,99347.94
2018-12-09T05:29:39.386Z,99324.11
2018-12-09T05:30:43.415Z,99326.58
2018-12-09T05:31:47.469Z,99331.88
2018-12-09T05:32:51.814Z,99328.74
2018-12-09T05:33:56.153Z,99332.72
2018-12-09T05:35:00.120Z,99328.74
2018-12-09T05:36:04.295Z,99335.02
2018-12-09T05:37:08.277Z,99333.86
2018-12-09T05:38:12.385Z,99331.21
2018-12-09T05:39:16.409Z,99339.16
2018-12-09T05:40:20.408Z,99340.48
2018-12-09T05:41:24.522Z,99334.84
2018-12-09T05:42:28.712Z,99332.54
2018-12-09T05:43:32.808Z,99341.31
2018-12-09T05:44:37.018Z,99339.16
2018-12-09T05:45:41.172Z,99347.72
2018-12-09T05:46:45.214Z,99348.56
2018-12-09T05:47:49.191Z,99350.72
2018-12-09T05:48:53.394Z,99348.56
2018-12-09T05:49:57.429Z,99353.54
2018-12-09T05:51:01.547Z,99347.89
2018-12-09T05:52:05.606Z,99352.84
2018-12-09T05:53:09.651Z,99356.32
2018-12-09T05:54:13.851Z,99358.62
2018-12-09T05:55:17.799Z,99353.49
2018-12-09T05:56:22.288Z,99355.30
2018-12-09T05:57:26.832Z,99369.86
2018-12-09T05:58:31.294Z,99362.71
2018-12-09T05:59:35.496Z,99365.36
2018-12-09T06:00:39.549Z,99376.92
2018-12-09T06:01:43.767Z,99369.15
2018-12-09T06:02:54.211Z,99373.60
2018-12-09T06:03:58.343Z,99377.84
2018-12-09T06:05:02.383Z,99378.33
2018-12-09T06:06:06.483Z,99372.37
2018-12-09T06:07:10.667Z,99365.40
2018-12-09T06:08:14.817Z,99368.05
2018-12-09T06:09:18.875Z,99374.66
2018-12-09T06:10:22.980Z,99375.15
2018-12-09T06:11:27.072Z,99375.15
2018-12-09T06:12:31.075Z,99373.16
2018-12-09T06:13:35.032Z,99368.34
2018-12-09T06:14:39.081Z,99367.02
2018-12-09T06:15:43.240Z,99377.61
2018-12-09T06:16:47.287Z,99367.16
2018-12-09T06:17:51.392Z,99362.88
2018-12-09T06:18:55.634Z,99365.35
2018-12-09T06:19:59.813Z,99368.34
2018-12-09T06:21:04.445Z,99374.97
2018-12-09T06:22:08.927Z,99377.61
2018-12-09T06:23:13.251Z,99373.64
2018-12-09T06:24:17.445Z,99376.64
2018-12-09T06:25:21.668Z,99380.09
2018-12-09T06:26:25.637Z,99371.97
2018-12-09T06:27:29.654Z,99380.88
2018-12-09T06:28:33.650Z,99388.98
2018-12-09T06:29:37.682Z,99402.03
2018-12-09T06:30:41.733Z,99380.16
2018-12-09T06:31:45.747Z,99388.94
2018-12-09T06:32:49.771Z,99387.48
2018-12-09T06:33:53.735Z,99398.73
2018-12-09T06:34:57.722Z,99406.67
2018-12-09T06:36:01.718Z,99394.28
2018-12-09T06:37:05.876Z,99385.85
2018-12-09T06:38:10.002Z,99402.05
2018-12-09T06:39:14.012Z,99394.77
2018-12-09T06:40:18.161Z,99409.33
2018-12-09T06:41:22.261Z,99398.38
2018-12-09T06:42:26.282Z,99396.74
2018-12-09T06:43:30.368Z,99387.12
2018-12-09T06:44:35.405Z,99394.09
2018-12-09T06:45:40.405Z,99395.42
2018-12-09T06:46:44.368Z,99388.45
2018-12-09T06:47:48.343Z,99392.77
2018-12-09T06:48:52.469Z,99398.73
2018-12-09T06:49:56.690Z,99387.48
2018-12-09T06:51:00.719Z,99398.38
2018-12-09T06:52:04.927Z,99391.77
2018-12-09T06:53:08.935Z,99394.77
2018-12-09T06:54:13.065Z,99391.14
2018-12-09T06:55:17.215Z,99390.14
2018-12-09T06:56:21.167Z,99395.44
2018-12-09T06:57:25.315Z,99393.14
2018-12-09T06:58:29.358Z,99401.56
2018-12-09T06:59:33.327Z,99406.55
2018-12-09T07:00:42.891Z,99404.38
2018-12-09T07:01:47.250Z,99400.41
2018-12-09T07:02:51.311Z,99400.90
2018-12-09T07:03:55.513Z,99410.64
2018-12-09T07:04:59.537Z,99411.97
2018-12-09T07:06:03.553Z,99403.55
2018-12-09T07:07:14.438Z,99419.26
2018-12-09T07:08:18.471Z,99426.71
2018-12-09T07:09:22.926Z,99428.03
2018-12-09T07:10:27.413Z,99420.80
2018-12-09T07:11:31.494Z,99424.77
2018-12-09T07:12:35.772Z,99416.34
2018-12-09T07:13:39.827Z,99428.92
2018-12-09T07:14:43.785Z,99426.95
2018-12-09T07:15:47.834Z,99433.92
2018-12-09T07:16:51.968Z,99437.27
2018-12-09T07:17:56.061Z,99433.82
2018-12-09T07:19:00.112Z,99436.30
2018-12-09T07:20:04.791Z,99438.59
2018-12-09T07:21:08.871Z,99431.49
2018-12-09T07:22:12.952Z,99444.59
2018-12-09T07:23:16.970Z,99443.27
2018-12-09T07:24:21.015Z,99430.36
2018-12-09T07:25:25.151Z,99441.46
2018-12-09T07:26:29.179Z,99442.27
2018-12-09T07:27:33.297Z,99445.27
2018-12-09T07:28:37.383Z,99448.75
2018-12-09T07:29:41.606Z,99440.67
2018-12-09T07:30:45.590Z,99452.08
2018-12-09T07:31:50.203Z,99449.78
2018-12-09T07:32:55.782Z,99455.91
2018-12-09T07:34:00.459Z,99460.91
2018-12-09T07:35:04.904Z,99461.26
2018-12-09T07:36:09.030Z,99458.93
2018-12-09T07:37:13.165Z,99472.52
2018-12-09T07:38:17.150Z,99469.22
2018-12-09T07:39:21.187Z,99459.34
2018-12-09T07:40:25.220Z,99464.46
2018-12-09T07:41:29.233Z,99465.30
2018-12-09T07:42:33.367Z,99472.27
2018-12-09T07:43:37.443Z,99469.63
2018-12-09T07:44:41.695Z,99472.63
2018-12-09T07:45:45.876Z,99470.16
2018-12-09T07:46:49.913Z,99465.70
2018-12-09T07:47:53.956Z,99474.32
2018-12-09T07:48:58.130Z,99471.86
2018-12-09T07:50:02.294Z,99472.34
2018-12-09T07:51:06.546Z,99473.19
2018-12-09T07:52:10.638Z,99481.97
2018-12-09T07:53:15.673Z,99480.64
2018-12-09T07:54:19.725Z,99492.56
2018-12-09T07:55:23.734Z,99490.40
2018-12-09T07:56:27.803Z,99495.20
2018-12-09T07:57:31.932Z,99492.20
2018-12-09T07:58:35.955Z,99496.05
2018-12-09T07:59:40.024Z,99508.80
2018-12-09T08:00:44.101Z,99491.91
2018-12-09T08:01:48.198Z,99500.20
2018-12-09T08:02:52.294Z,99503.20
2018-12-09T08:03:56.328Z,99499.91
2018-12-09T08:05:00.670Z,99511.20
2018-12-09T08:06:04.741Z,99512.84
2018-12-09T08:07:08.779Z,99518.50
2018-12-09T08:08:13.472Z,99512.23
2018-12-09T08:09:17.486Z,99515.55
2018-12-09T08:10:21.582Z,99517.22
2018-12-09T08:11:25.644Z,99516.57
2018-12-09T08:12:29.739Z,99518.25
2018-12-09T08:13:33.910Z,99517.59
2018-12-09T08:14:37.983Z,99521.44
2018-12-09T08:15:42.002Z,99515.13
2018-12-09T08:16:46.057Z,99518.97
2018-12-09T08:17:50.133Z,99528.91
2018-12-09T08:18:54.184Z,99526.13
2018-12-09T08:19:58.211Z,99519.34
2018-12-09T08:21:02.598Z,99515.23
2018-12-09T08:22:06.918Z,99527.50
2018-12-09T08:23:10.982Z,99529.66
2018-12-09T08:24:15.080Z,99542.75
2018-12-09T08:25:19.201Z,99528.17
2018-12-09T08:26:23.386Z,99532.02
2018-12-09T08:27:27.524Z,99544.26
2018-12-09T08:28:32.012Z,99536.66
2018-12-09T08:29:36.031Z,99537.02
2018-12-09T08:30:40.179Z,99542.14
2018-12-09T08:31:44.676Z,99542.63
2018-12-09T08:32:48.697Z,99541.66
2018-12-09T08:33:52.853Z,99550.09
2018-12-09T08:34:56.963Z,99545.63
2018-12-09T08:36:01.038Z,99551.91
2018-12-09T08:37:05.226Z,99549.30
2018-12-09T08:38:09.324Z,99546.66
2018-12-09T08:39:13.358Z,99545.20
2018-12-09T08:40:17.642Z,99553.47
2018-12-09T08:41:21.831Z,99555.62
2018-12-09T08:42:25.898Z,99546.35
2018-12-09T08:43:29.951Z,99549.35
2018-12-09T08:44:33.989Z,99555.33
2018-12-09T08:45:38.195Z,99557.35
2018-12-09T08:46:42.430Z,99553.70
2018-12-09T08:47:46.618Z,99555.86
2018-12-09T08:48:50.646Z,99545.61
2018-12-09T08:49:54.761Z,99557.05
2018-12-09T08:50:58.959Z,99554.88
2018-12-09T08:52:03.049Z,99553.39
2018-12-09T08:53:07.118Z,99552.41
2018-12-09T08:54:11.187Z,99552.77
2018-12-09T08:55:15.282Z,99562.05
2018-12-09T08:56:19.319Z,99558.07
2018-12-09T08:57:23.382Z,99563.72
2018-12-09T08:58:27.599Z,99562.05
2018-12-09T08:59:31.607Z,99564.70
2018-12-09T09:00:35.876Z,99560.72
2018-12-09T09:01:39.903Z,99567.18
2018-12-09T09:02:44.215Z,99565.53
2018-12-09T09:03:48.284Z,99568.02
2018-12-09T09:04:52.319Z,99569.70
2018-12-09T09:05:56.462Z,99566.39
2018-12-09T09:07:01.108Z,99577.70
2018-12-09T09:08:05.310Z,99562.11
2018-12-09T09:09:09.407Z,99566.78
2018-12-09T09:10:13.597Z,99561.13
2018-12-09T09:11:17.657Z,99573.06
2018-12-09T09:12:21.686Z,99564.76
2018-12-09T09:13:25.733Z,99571.73
2018-12-09T09:14:30.048Z,99575.06
2018-12-09T09:15:34.161Z,99567.80
2018-12-09T09:16:38.698Z,99575.11
2018-12-09T09:17:42.898Z,99565.83
2018-12-09T09:18:47.016Z,99573.16
2018-12-09T09:19:51.059Z,99576.48
2018-12-09T09:20:55.146Z,99576.83
2018-12-09T09:21:59.226Z,99577.98
2018-12-09T09:23:03.248Z,99583.15
2018-12-09T09:24:07.766Z,99568.87
2018-12-09T09:25:11.890Z,99575.98
2018-12-09T09:26:15.971Z,99578.78
2018-12-09T09:27:20.023Z,99583.24
2018-12-09T09:28:24.051Z,99582.92
2018-12-09T09:29:28.125Z,99584.73
2018-12-09T09:30:32.242Z,99582.08
2018-12-09T09:31:36.301Z,99584.08
2018-12-09T09:32:40.382Z,99578.45
2018-12-09T09:33:45.061Z,99586.41
2018-12-09T09:34:49.320Z,99581.11
2018-12-09T09:35:53.314Z,99586.06
2018-12-09T09:36:57.335Z,99582.92
2018-12-09T09:38:01.375Z,99586.06
2018-12-09T09:39:06.597Z,99586.41
2018-12-09T09:40:10.825Z,99581.91
2018-12-09T09:41:14.943Z,99585.27
2018-12-09T09:42:19.127Z,99584.47
2018-12-09T09:43:23.138Z,99586.12
2018-12-09T09:44:27.159Z,99592.13
2018-12-09T09:45:31.217Z,99587.31
2018-12-09T09:46:35.401Z,99589.61
2018-12-09T09:47:39.555Z,99595.41
2018-12-09T09:48:43.711Z,99599.20
2018-12-09T09:49:47.775Z,99593.06
2018-12-09T09:50:51.996Z,99595.39
2018-12-09T09:51:56.097Z,99600.17
2018-12-09T09:53:00.279Z,99595.70
2018-12-09T09:54:04.536Z,99604.02
2018-12-09T09:55:08.653Z,99598.04
2018-12-09T09:56:12.714Z,99598.34
2018-12-09T09:57:16.798Z,99601.79
2018-12-09T09:58:21.015Z,99600.60
2018-12-09T09:59:25.108Z,99612.00
2018-12-09T10:00:29.110Z,99609.16
2018-12-09T10:01:33.189Z,99616.45
2018-12-09T10:02:37.219Z,99609.77
2018-12-09T10:03:41.604Z,99606.93
2018-12-09T10:04:45.742Z,99609.72
2018-12-09T10:05:50.359Z,99612.31
2018-12-09T10:06:54.515Z,99614.30
2018-12-09T10:07:58.701Z,99611.78
2018-12-09T10:09:03.194Z,99617.73
2018-12-09T10:10:07.726Z,99615.56
2018-12-09T10:11:11.902Z,99622.55
2018-12-09T10:12:17.128Z,99621.52
2018-12-09T10:13:21.439Z,99624.79
2018-12-09T10:14:25.665Z,99629.42
2018-12-09T10:15:29.741Z,99633.20
2018-12-09T10:16:34.189Z,99631.39
2018-12-09T10:17:38.264Z,99628.88
2018-12-09T10:18:42.464Z,99628.03
2018-12-09T10:19:46.607Z,99636.64
2018-12-09T10:20:50.682Z,99634.95
2018-12-09T10:21:54.802Z,99636.77
2018-12-09T10:22:58.882Z,99634.61
2018-12-09T10:24:02.962Z,99629.83
2018-12-09T10:25:07.235Z,99634.28
2018-12-09T10:26:11.266Z,99635.26
2018-12-09T10:27:15.424Z,99632.61
2018-12-09T10:28:19.475Z,99637.91
2018-12-09T10:29:23.519Z,99625.14
2018-12-09T10:30:27.547Z,99625.98
2018-12-09T10:31:31.955Z,99637.25
2018-12-09T10:32:36.042Z,99633.45
2018-12-09T10:33:40.217Z,99641.20
2018-12-09T10:34:44.326Z,99647.61
2018-12-09T10:35:48.438Z,99652.91
2018-12-09T10:36:52.486Z,99651.27
2018-12-09T10:37:56.702Z,99651.39
2018-12-09T10:39:00.779Z,99648.74
2018-12-09T10:40:05.045Z,99648.74
2018-12-09T10:41:09.077Z,99647.77
2018-12-09T10:42:13.082Z,99641.50
2018-12-09T10:43:17.162Z,99641.34
2018-12-09T10:44:21.423Z,99649.16
2018-12-09T10:45:25.518Z,99643.86
2018-12-09T10:46:29.655Z,99642.85
2018-12-09T10:47:33.846Z,99642.37
2018-12-09T10:48:37.979Z,99641.88
2018-12-09T10:49:42.059Z,99641.23
2018-12-09T10:50:46.203Z,99636.98
2018-12-09T10:51:50.583Z,99643.94
2018-12-09T10:52:55.503Z,99643.64
2018-12-09T10:53:59.586Z,99642.02
2018-12-09T10:55:03.859Z,99638.75
2018-12-09T10:56:07.927Z,99641.09
2018-12-09T10:57:11.998Z,99636.83
2018-12-09T10:58:16.057Z,99636.66
2018-12-09T10:59:20.223Z,99634.53
2018-12-09T11:00:29.794Z,99629.55
2018-12-09T11:01:38.971Z,99632.41
2018-12-09T11:02:43.120Z,99635.55
2018-12-09T11:03:47.381Z,99639.17
2018-12-09T11:04:51.454Z,99630.73
2018-12-09T11:05:55.528Z,99631.77
2018-12-09T11:06:59.592Z,99633.63
2018-12-09T11:08:03.662Z,99639.47
2018-12-09T11:09:07.834Z,99637.00
2018-12-09T11:10:12.063Z,99637.35
2018-12-09T11:11:16.200Z,99642.48
2018-12-09T11:12:20.355Z,99644.82
2018-12-09T11:13:24.478Z,99637.00
2018-12-09T11:14:28.632Z,99639.47
2018-12-09T11:15:32.800Z,99641.28
2018-12-09T11:16:36.833Z,99645.25
2018-12-09T11:17:40.866Z,99646.09
2018-12-09T11:18:45.161Z,99646.28
2018-12-09T11:19:49.187Z,99655.27
2018-12-09T11:20:53.226Z,99655.66
2018-12-09T11:21:57.395Z,99651.70
2018-12-09T11:23:01.495Z,99658.73
2018-12-09T11:24:05.568Z,99660.59
2018-12-09T11:25:09.557Z,99668.73
2018-12-09T11:26:13.855Z,99669.77
2018-12-09T11:27:17.981Z,99669.46
2018-12-09T11:28:22.119Z,99666.85
2018-12-09T11:29:26.110Z,99673.53
2018-12-09T11:30:30.360Z,99664.75
2018-12-09T11:31:34.442Z,99674.56
2018-12-09T11:32:38.728Z,99676.92
2018-12-09T11:33:42.838Z,99666.66
2018-12-09T11:34:46.894Z,99676.30
2018-12-09T11:35:50.895Z,99670.01
2018-12-09T11:36:54.946Z,99671.17
2018-12-09T11:37:59.032Z,99672.01
2018-12-09T11:39:04.294Z,99669.84
2018-12-09T11:40:08.479Z,99667.19
2018-12-09T11:41:12.494Z,99674.00
2018-12-09T11:42:16.522Z,99668.56
2018-12-09T11:43:20.838Z,99670.06
2018-12-09T11:44:24.887Z,99681.03
2018-12-09T11:45:29.137Z,99684.17
2018-12-09T11:46:33.816Z,99684.31
2018-12-09T11:47:37.861Z,99703.90
2018-12-09T11:48:41.907Z,99729.06
2018-12-09T11:49:46.038Z,99728.64
2018-12-09T11:50:50.088Z,99741.87
2018-12-09T11:51:54.155Z,99732.94
2018-12-09T11:52:58.590Z,99743.31
2018-12-09T11:54:02.617Z,99738.31
2018-12-09T11:55:06.843Z,99732.86
2018-12-09T11:56:11.043Z,99736.09
2018-12-09T11:57:15.047Z,99741.50
2018-12-09T11:58:19.065Z,99735.01
2018-12-09T11:59:23.212Z,99738.02
2018-12-09T12:00:27.379Z,99736.06
2018-12-09T12:01:31.461Z,99733.36
2018-12-09T12:02:35.487Z,99744.23
2018-12-09T12:03:39.544Z,99747.12
2018-12-09T12:04:43.607Z,99745.75
2018-12-09T12:05:47.694Z,99742.74
2018-12-09T12:06:51.817Z,99745.51
2018-12-09T12:07:55.825Z,99739.41
2018-12-09T12:09:00.046Z,99745.66
2018-12-09T12:10:04.558Z,99750.59
2018-12-09T12:11:08.628Z,99751.35
2018-12-09T12:12:12.677Z,99741.53
2018-12-09T12:13:16.701Z,99742.85
2018-12-09T12:14:20.766Z,99742.80
2018-12-09T12:15:24.822Z,99744.88
2018-12-09T12:16:29.944Z,99748.97
2018-12-09T12:17:34.051Z,99749.45
2018-12-09T12:18:38.162Z,99752.24
2018-12-09T12:19:42.207Z,99754.17
2018-12-09T12:20:46.162Z,99752.04
2018-12-09T12:21:50.179Z,99757.66
2018-12-09T12:22:54.178Z,99750.56
2018-12-09T12:23:58.203Z,99754.69
2018-12-09T12:25:02.287Z,99752.84
2018-12-09T12:26:06.355Z,99754.89
2018-12-09T12:27:10.355Z,99761.70
2018-12-09T12:28:14.388Z,99766.24
2018-12-09T12:29:18.332Z,99772.09
2018-12-09T12:30:22.365Z,99769.53
2018-12-09T12:31:26.340Z,99772.03
2018-12-09T12:32:30.535Z,99774.40
2018-12-09T12:33:34.588Z,99774.13
2018-12-09T12:34:38.698Z,99783.38